createdAt,value
2018-09-02T00:00:32.577Z,39.00
2018-09-02T00:01:49.427Z,39.00
2018-09-02T00:03:06.286Z,39.00
2018-09-02T00:04:23.061Z,39.00
2018-09-02T00:05:39.944Z,39.10
2018-09-02T00:06:56.623Z,39.10
2018-09-02T00:08:14.209Z,39.00
2018-09-02T00:09:31.074Z,39.10
2018-09-02T00:10:48.233Z,39.40
2018-09-02T00:12:04.864Z,39.00
2018-09-02T00:13:21.759Z,39.20
2018-09-02T00:14:39.252Z,39.00
2018-09-02T00:15:56.109Z,39.00
2018-09-02T00:17:13.298Z,38.40
2018-09-02T00:18:29.956Z,39.00
2018-09-02T00:19:46.708Z,39.10
2018-09-02T00:21:03.913Z,39.00
2018-09-02T00:22:20.809Z,39.00
2018-09-02T00:23:40.417Z,39.00
2018-09-02T00:24:57.406Z,39.00
2018-09-02T00:26:13.919Z,39.00
2018-09-02T00:27:30.966Z,39.00
2018-09-02T00:28:47.900Z,39.00
2018-09-02T00:30:06.148Z,39.00
2018-09-02T00:31:22.921Z,39.00
2018-09-02T00:32:39.915Z,39.00
2018-09-02T00:33:57.139Z,39.00
2018-09-02T00:35:14.444Z,39.00
2018-09-02T00:36:31.257Z,39.00
2018-09-02T00:37:47.916Z,39.00
2018-09-02T00:39:07.933Z,39.00
2018-09-02T00:40:24.480Z,39.00
2018-09-02T00:41:41.218Z,38.50
2018-09-02T00:42:58.023Z,39.00
2018-09-02T00:44:14.793Z,39.00
2018-09-02T00:45:32.634Z,39.00
2018-09-02T00:46:50.021Z,39.00
2018-09-02T00:48:06.921Z,39.00
2018-09-02T00:49:23.686Z,39.00
2018-09-02T00:50:40.546Z,39.00
2018-09-02T00:51:57.496Z,39.00
2018-09-02T00:53:14.334Z,39.00
2018-09-02T00:54:30.891Z,39.00
2018-09-02T00:55:47.653Z,39.00
2018-09-02T00:57:04.783Z,39.00
2018-09-02T00:58:21.398Z,39.00
2018-09-02T00:59:38.297Z,39.00
2018-09-02T01:00:55.033Z,39.00
2018-09-02T01:02:11.859Z,39.00
2018-09-02T01:03:28.627Z,39.00
2018-09-02T01:04:45.983Z,39.00
2018-09-02T01:06:03.456Z,39.60
2018-09-02T01:07:20.449Z,39.00
2018-09-02T01:08:37.230Z,39.00
2018-09-02T01:09:54.086Z,39.00
2018-09-02T01:11:11.013Z,39.00
2018-09-02T01:12:27.862Z,39.00
2018-09-02T01:13:44.722Z,39.00
2018-09-02T01:15:01.857Z,38.90
2018-09-02T01:16:18.620Z,38.90
2018-09-02T01:17:35.450Z,39.00
2018-09-02T01:18:52.217Z,39.70
2018-09-02T01:20:09.079Z,39.30
2018-09-02T01:21:25.761Z,38.90
2018-09-02T01:22:43.602Z,39.00
2018-09-02T01:24:01.261Z,39.00
2018-09-02T01:25:18.712Z,39.00
2018-09-02T01:26:35.628Z,39.00
2018-09-02T01:27:53.043Z,39.00
2018-09-02T01:29:09.984Z,39.00
2018-09-02T01:30:27.413Z,39.00
2018-09-02T01:31:44.341Z,39.00
2018-09-02T01:33:01.410Z,39.00
2018-09-02T01:34:18.045Z,39.00
2018-09-02T01:35:35.155Z,39.00
2018-09-02T01:36:53.222Z,39.00
2018-09-02T01:38:12.150Z,39.00
2018-09-02T01:39:29.199Z,39.10
2018-09-02T01:40:45.920Z,39.00
2018-09-02T01:42:02.655Z,39.70
2018-09-02T01:43:19.183Z,39.00
2018-09-02T01:44:35.890Z,39.00
2018-09-02T01:45:52.648Z,39.00
2018-09-02T01:47:09.379Z,38.90
2018-09-02T01:48:26.111Z,39.00
2018-09-02T01:49:43.014Z,39.00
2018-09-02T01:50:59.745Z,38.40
2018-09-02T01:52:16.382Z,39.00
2018-09-02T01:53:33.290Z,38.90
2018-09-02T01:54:50.134Z,39.00
2018-09-02T01:56:07.005Z,39.00
2018-09-02T01:57:23.941Z,39.30
2018-09-02T01:58:40.825Z,39.00
2018-09-02T01:59:58.321Z,39.00
2018-09-02T02:01:16.790Z,39.00
2018-09-02T02:02:33.752Z,39.00
2018-09-02T02:03:50.751Z,39.00
2018-09-02T02:05:07.362Z,39.00
2018-09-02T02:06:24.247Z,39.30
2018-09-02T02:07:42.616Z,39.00
2018-09-02T02:08:59.537Z,39.00
2018-09-02T02:10:16.443Z,39.10
2018-09-02T02:11:32.972Z,39.00
2018-09-02T02:12:49.914Z,39.10
2018-09-02T02:14:06.787Z,38.90
2018-09-02T02:15:23.496Z,39.10
2018-09-02T02:16:40.530Z,39.00
2018-09-02T02:17:57.091Z,39.20
2018-09-02T02:19:14.029Z,39.20
2018-09-02T02:20:30.738Z,39.30
2018-09-02T02:21:47.458Z,38.60
2018-09-02T02:23:04.053Z,39.20
2018-09-02T02:24:20.626Z,39.20
2018-09-02T02:25:37.561Z,39.30
2018-09-02T02:26:55.275Z,39.30
2018-09-02T02:28:12.110Z,39.20
2018-09-02T02:29:29.255Z,39.20
2018-09-02T02:30:46.879Z,39.10
2018-09-02T02:32:03.769Z,39.30
2018-09-02T02:33:21.161Z,39.30
2018-09-02T02:34:38.250Z,39.30
2018-09-02T02:35:55.095Z,39.30
2018-09-02T02:37:11.966Z,39.30
2018-09-02T02:38:29.334Z,40.00
2018-09-02T02:39:45.980Z,39.40
2018-09-02T02:41:02.814Z,39.30
2018-09-02T02:42:19.661Z,39.40
2018-09-02T02:43:37.105Z,39.50
2018-09-02T02:44:54.106Z,39.40
2018-09-02T02:46:11.508Z,39.50
2018-09-02T02:47:28.693Z,39.50
2018-09-02T02:48:47.029Z,39.60
2018-09-02T02:50:03.909Z,39.80
2018-09-02T02:51:20.781Z,39.40
2018-09-02T02:52:42.840Z,39.50
2018-09-02T02:54:00.536Z,39.40
2018-09-02T02:55:17.278Z,39.40
2018-09-02T02:56:34.111Z,39.70
2018-09-02T02:57:50.983Z,40.30
2018-09-02T02:59:07.773Z,39.40
2018-09-02T03:00:24.506Z,39.50
2018-09-02T03:01:41.251Z,39.60
2018-09-02T03:02:58.188Z,39.50
2018-09-02T03:04:14.829Z,39.50
2018-09-02T03:05:32.430Z,39.50
2018-09-02T03:06:49.449Z,39.60
2018-09-02T03:08:06.323Z,39.50
2018-09-02T03:09:23.953Z,39.60
2018-09-02T03:10:40.897Z,39.60
2018-09-02T03:11:57.767Z,39.60
2018-09-02T03:13:14.473Z,39.40
2018-09-02T03:14:31.494Z,39.70
2018-09-02T03:15:48.465Z,39.50
2018-09-02T03:17:05.316Z,40.00
2018-09-02T03:18:22.882Z,39.50
2018-09-02T03:19:39.681Z,39.60
2018-09-02T03:20:56.799Z,39.70
2018-09-02T03:22:14.468Z,39.70
2018-09-02T03:23:31.262Z,39.70
2018-09-02T03:24:48.203Z,39.70
2018-09-02T03:26:05.040Z,39.70
2018-09-02T03:27:21.685Z,39.80
2018-09-02T03:28:38.688Z,39.80
2018-09-02T03:29:55.504Z,39.70
2018-09-02T03:31:12.386Z,39.60
2018-09-02T03:32:29.005Z,40.30
2018-09-02T03:33:46.117Z,39.70
2018-09-02T03:35:02.791Z,39.80
2018-09-02T03:36:19.960Z,39.60
2018-09-02T03:37:37.353Z,39.70
2018-09-02T03:38:54.164Z,39.70
2018-09-02T03:40:11.014Z,39.70
2018-09-02T03:41:27.787Z,39.70
2018-09-02T03:42:44.747Z,39.60
2018-09-02T03:44:01.546Z,39.80
2018-09-02T03:45:18.499Z,39.80
2018-09-02T03:46:35.103Z,39.70
2018-09-02T03:47:51.789Z,39.80
2018-09-02T03:49:08.382Z,39.80
2018-09-02T03:50:25.175Z,39.80
2018-09-02T03:51:41.890Z,39.80
2018-09-02T03:52:58.737Z,39.90
2018-09-02T03:54:15.582Z,39.90
2018-09-02T03:55:32.878Z,39.70
2018-09-02T03:56:50.311Z,39.90
2018-09-02T03:58:07.084Z,39.80
2018-09-02T03:59:23.982Z,39.80
2018-09-02T04:00:40.933Z,39.70
2018-09-02T04:01:57.750Z,39.80
2018-09-02T04:03:15.006Z,39.80
2018-09-02T04:04:32.457Z,40.50
2018-09-02T04:05:49.001Z,40.50
2018-09-02T04:07:06.048Z,39.80
2018-09-02T04:08:23.480Z,39.70
2018-09-02T04:09:40.242Z,39.80
2018-09-02T04:10:57.342Z,39.80
2018-09-02T04:12:14.154Z,39.80
2018-09-02T04:13:30.729Z,39.70
2018-09-02T04:14:47.532Z,39.70
2018-09-02T04:16:04.373Z,39.80
2018-09-02T04:17:21.243Z,39.80
2018-09-02T04:18:38.148Z,39.70
2018-09-02T04:19:54.863Z,39.70
2018-09-02T04:21:11.738Z,39.80
2018-09-02T04:22:28.580Z,39.80
2018-09-02T04:23:45.477Z,39.80
2018-09-02T04:25:02.953Z,39.30
2018-09-02T04:26:19.708Z,39.80
2018-09-02T04:27:36.665Z,39.80
2018-09-02T04:28:54.189Z,39.80
2018-09-02T04:30:10.889Z,39.80
2018-09-02T04:31:27.689Z,39.80
2018-09-02T04:32:44.578Z,39.90
2018-09-02T04:34:01.370Z,39.80
2018-09-02T04:35:17.984Z,40.00
2018-09-02T04:36:35.041Z,39.90
2018-09-02T04:37:52.701Z,40.50
2018-09-02T04:39:10.415Z,39.90
2018-09-02T04:40:28.041Z,40.00
2018-09-02T04:41:44.675Z,39.90
2018-09-02T04:43:02.258Z,40.70
2018-09-02T04:44:19.535Z,40.20
2018-09-02T04:45:36.845Z,40.70
2018-09-02T04:46:54.421Z,40.00
2018-09-02T04:48:11.245Z,40.00
2018-09-02T04:49:28.112Z,40.00
2018-09-02T04:50:44.689Z,40.00
2018-09-02T04:52:01.797Z,40.00
2018-09-02T04:53:18.665Z,40.00
2018-09-02T04:54:35.296Z,40.10
2018-09-02T04:55:52.310Z,40.00
2018-09-02T04:57:09.711Z,40.00
2018-09-02T04:58:27.037Z,40.10
2018-09-02T04:59:44.442Z,40.00
2018-09-02T05:01:01.453Z,40.00
2018-09-02T05:02:18.338Z,40.70
2018-09-02T05:03:35.033Z,40.00
2018-09-02T05:04:51.756Z,40.00
2018-09-02T05:06:08.468Z,40.00
2018-09-02T05:07:32.326Z,40.10
2018-09-02T05:08:49.098Z,40.00
2018-09-02T05:10:06.410Z,40.30
2018-09-02T05:11:23.652Z,40.00
2018-09-02T05:12:40.583Z,40.00
2018-09-02T05:13:57.352Z,40.00
2018-09-02T05:15:13.977Z,40.00
2018-09-02T05:16:30.943Z,40.00
2018-09-02T05:17:48.462Z,40.00
2018-09-02T05:19:05.248Z,40.00
2018-09-02T05:20:22.060Z,40.00
2018-09-02T05:21:38.916Z,40.00
2018-09-02T05:22:55.745Z,40.10
2018-09-02T05:24:12.570Z,40.00
2018-09-02T05:25:29.566Z,40.00
2018-09-02T05:26:46.248Z,40.00
2018-09-02T05:28:03.858Z,40.00
2018-09-02T05:29:20.885Z,40.10
2018-09-02T05:30:37.653Z,40.00
2018-09-02T05:31:55.936Z,40.00
2018-09-02T05:33:12.744Z,40.10
2018-09-02T05:34:29.538Z,40.10
2018-09-02T05:35:46.085Z,40.10
2018-09-02T05:37:04.897Z,39.80
2018-09-02T05:38:21.564Z,40.20
2018-09-02T05:39:38.475Z,40.20
2018-09-02T05:40:56.189Z,40.10
2018-09-02T05:42:13.426Z,40.20
2018-09-02T05:43:30.415Z,40.20
2018-09-02T05:44:47.035Z,40.20
2018-09-02T05:46:03.852Z,40.20
2018-09-02T05:47:20.567Z,40.10
2018-09-02T05:48:37.262Z,39.60
2018-09-02T05:49:54.030Z,40.10
2018-09-02T05:51:10.991Z,40.20
2018-09-02T05:52:27.896Z,40.10
2018-09-02T05:53:44.638Z,40.10
2018-09-02T05:55:01.472Z,40.20
2018-09-02T05:56:18.597Z,40.10
2018-09-02T05:57:35.396Z,40.20
2018-09-02T05:58:52.309Z,40.20
2018-09-02T06:00:09.087Z,40.90
2018-09-02T06:01:26.080Z,40.30
2018-09-02T06:02:42.833Z,40.30
2018-09-02T06:03:59.750Z,40.20
2018-09-02T06:05:20.773Z,40.20
2018-09-02T06:06:38.709Z,40.20
2018-09-02T06:07:57.704Z,40.20
2018-09-02T06:09:14.713Z,40.20
2018-09-02T06:10:31.970Z,40.30
2018-09-02T06:11:49.470Z,41.00
2018-09-02T06:13:06.791Z,40.30
2018-09-02T06:14:23.618Z,40.30
2018-09-02T06:15:40.261Z,40.30
2018-09-02T06:16:57.097Z,40.30
2018-09-02T06:18:13.842Z,40.30
2018-09-02T06:19:30.556Z,40.30
2018-09-02T06:20:47.378Z,40.30
2018-09-02T06:22:04.134Z,40.30
2018-09-02T06:23:20.983Z,40.30
2018-09-02T06:24:38.044Z,40.30
2018-09-02T06:25:55.410Z,40.30
2018-09-02T06:27:12.898Z,40.20
2018-09-02T06:28:30.426Z,40.20
2018-09-02T06:29:47.218Z,40.30
2018-09-02T06:31:03.869Z,40.40
2018-09-02T06:32:20.605Z,40.30
2018-09-02T06:33:37.255Z,40.40
2018-09-02T06:34:54.161Z,40.40
2018-09-02T06:36:11.097Z,40.30
2018-09-02T06:37:27.886Z,41.00
2018-09-02T06:38:44.760Z,40.70
2018-09-02T06:40:01.541Z,40.30
2018-09-02T06:41:18.387Z,40.40
2018-09-02T06:42:35.230Z,40.40
2018-09-02T06:43:52.096Z,41.00
2018-09-02T06:45:09.006Z,40.20
2018-09-02T06:46:25.822Z,40.20
2018-09-02T06:47:42.625Z,40.30
2018-09-02T06:48:59.686Z,39.70
2018-09-02T06:50:16.459Z,40.50
2018-09-02T06:51:33.721Z,40.30
2018-09-02T06:52:50.932Z,40.40
2018-09-02T06:54:07.789Z,40.30
2018-09-02T06:55:24.741Z,40.40
2018-09-02T06:56:41.400Z,40.40
2018-09-02T06:57:58.405Z,40.40
2018-09-02T06:59:15.222Z,40.40
2018-09-02T07:00:32.456Z,40.80
2018-09-02T07:01:49.896Z,40.40
2018-09-02T07:03:06.665Z,40.30
2018-09-02T07:04:23.738Z,40.40
2018-09-02T07:05:41.906Z,40.40
2018-09-02T07:06:59.183Z,40.30
2018-09-02T07:08:15.832Z,40.40
2018-09-02T07:09:32.773Z,40.40
2018-09-02T07:10:50.348Z,40.50
2018-09-02T07:12:07.231Z,40.50
2018-09-02T07:13:23.938Z,40.40
2018-09-02T07:14:41.287Z,40.40
2018-09-02T07:15:58.704Z,40.40
2018-09-02T07:17:15.569Z,40.50
2018-09-02T07:18:32.326Z,40.40
2018-09-02T07:19:49.345Z,40.40
2018-09-02T07:21:06.948Z,40.40
2018-09-02T07:22:23.735Z,40.50
2018-09-02T07:23:40.232Z,40.50
2018-09-02T07:24:57.031Z,40.50
2018-09-02T07:26:14.144Z,40.40
2018-09-02T07:27:30.814Z,39.90
2018-09-02T07:28:47.518Z,41.10
2018-09-02T07:30:04.352Z,40.50
2018-09-02T07:31:21.933Z,40.50
2018-09-02T07:32:38.529Z,40.40
2018-09-02T07:33:55.461Z,40.50
2018-09-02T07:35:12.431Z,40.50
2018-09-02T07:36:30.068Z,40.50
2018-09-02T07:37:47.713Z,40.40
2018-09-02T07:39:06.873Z,40.60
2018-09-02T07:40:24.038Z,40.50
2018-09-02T07:41:41.538Z,40.50
2018-09-02T07:42:58.054Z,40.50
2018-09-02T07:44:14.869Z,40.50
2018-09-02T07:45:31.578Z,40.50
2018-09-02T07:46:48.636Z,40.50
2018-09-02T07:48:05.393Z,40.50
2018-09-02T07:49:22.269Z,40.00
2018-09-02T07:50:38.975Z,40.50
2018-09-02T07:51:56.792Z,40.60
2018-09-02T07:53:13.601Z,40.60
2018-09-02T07:54:30.405Z,40.50
2018-09-02T07:55:47.189Z,40.60
2018-09-02T07:57:04.090Z,40.50
2018-09-02T07:58:21.010Z,40.60
2018-09-02T07:59:37.558Z,40.60
2018-09-02T08:00:54.521Z,40.60
2018-09-02T08:02:11.000Z,40.60
2018-09-02T08:03:27.751Z,40.60
2018-09-02T08:04:48.556Z,40.00
2018-09-02T08:06:05.518Z,40.60
2018-09-02T08:07:22.150Z,40.60
2018-09-02T08:08:40.181Z,40.60
2018-09-02T08:09:56.932Z,40.60
2018-09-02T08:11:14.095Z,40.60
2018-09-02T08:12:31.675Z,40.70
2018-09-02T08:13:48.699Z,40.60
2018-09-02T08:15:06.161Z,40.70
2018-09-02T08:16:23.171Z,40.60
2018-09-02T08:17:40.989Z,40.60
2018-09-02T08:18:57.871Z,40.70
2018-09-02T08:20:14.577Z,40.70
2018-09-02T08:21:31.715Z,40.80
2018-09-02T08:22:50.333Z,40.80
2018-09-02T08:24:06.870Z,40.70
2018-09-02T08:25:23.853Z,40.70
2018-09-02T08:26:40.597Z,40.80
2018-09-02T08:27:57.575Z,40.70
2018-09-02T08:29:14.249Z,40.70
2018-09-02T08:30:31.137Z,40.60
2018-09-02T08:31:48.259Z,40.70
2018-09-02T08:33:07.376Z,40.70
2018-09-02T08:34:29.199Z,40.70
2018-09-02T08:35:46.814Z,40.80
2018-09-02T08:37:04.418Z,40.70
2018-09-02T08:38:21.155Z,40.80
2018-09-02T08:39:38.098Z,40.80
2018-09-02T08:40:55.095Z,40.70
2018-09-02T08:42:11.793Z,40.70
2018-09-02T08:43:28.592Z,40.80
2018-09-02T08:44:45.511Z,41.30
2018-09-02T08:46:02.467Z,40.70
2018-09-02T08:47:19.065Z,40.70
2018-09-02T08:48:35.857Z,40.70
2018-09-02T08:49:52.865Z,40.80
2018-09-02T08:51:09.577Z,40.80
2018-09-02T08:52:26.400Z,40.80
2018-09-02T08:53:43.005Z,40.80
2018-09-02T08:54:59.864Z,40.80
2018-09-02T08:56:17.437Z,40.80
2018-09-02T08:57:34.195Z,40.80
2018-09-02T08:58:51.405Z,41.00
2018-09-02T09:00:09.001Z,40.80
2018-09-02T09:01:26.246Z,40.80
2018-09-02T09:02:43.033Z,40.80
2018-09-02T09:03:59.595Z,40.90
2018-09-02T09:05:16.084Z,40.80
2018-09-02T09:06:33.196Z,40.90
2018-09-02T09:07:50.943Z,40.80
2018-09-02T09:09:07.727Z,40.90
2018-09-02T09:10:24.185Z,40.90
2018-09-02T09:11:41.734Z,40.90
2018-09-02T09:12:59.296Z,40.90
2018-09-02T09:14:16.234Z,40.90
2018-09-02T09:15:33.013Z,40.90
2018-09-02T09:16:49.845Z,40.90
2018-09-02T09:18:06.797Z,40.90
2018-09-02T09:19:25.091Z,40.90
2018-09-02T09:20:42.626Z,40.90
2018-09-02T09:21:59.893Z,41.00
2018-09-02T09:23:17.119Z,40.90
2018-09-02T09:24:34.864Z,40.90
2018-09-02T09:25:52.504Z,41.00
2018-09-02T09:27:09.280Z,41.00
2018-09-02T09:28:26.725Z,41.00
2018-09-02T09:29:43.700Z,41.00
2018-09-02T09:31:01.113Z,40.90
2018-09-02T09:32:18.111Z,41.00
2018-09-02T09:33:34.934Z,40.90
2018-09-02T09:34:52.560Z,41.10
2018-09-02T09:36:09.265Z,40.90
2018-09-02T09:37:26.007Z,41.00
2018-09-02T09:38:42.532Z,41.00
2018-09-02T09:39:59.505Z,41.00
2018-09-02T09:41:17.134Z,41.00
2018-09-02T09:42:33.832Z,41.00
2018-09-02T09:43:52.632Z,41.10
2018-09-02T09:45:09.333Z,41.10
2018-09-02T09:46:26.401Z,41.80
2018-09-02T09:47:43.812Z,41.20
2018-09-02T09:49:00.931Z,41.00
2018-09-02T09:50:17.426Z,41.10
2018-09-02T09:51:34.381Z,41.40
2018-09-02T09:52:51.200Z,41.00
2018-09-02T09:54:07.856Z,41.00
2018-09-02T09:55:25.637Z,41.10
2018-09-02T09:56:42.865Z,41.10
2018-09-02T09:58:00.650Z,41.10
2018-09-02T09:59:18.141Z,41.10
2018-09-02T10:00:40.357Z,41.10
2018-09-02T10:01:58.551Z,41.20
2018-09-02T10:03:15.477Z,41.20
2018-09-02T10:04:32.466Z,41.10
2018-09-02T10:05:49.239Z,41.20
2018-09-02T10:07:06.260Z,41.20
2018-09-02T10:08:23.121Z,41.20
2018-09-02T10:09:39.845Z,41.20
2018-09-02T10:10:56.836Z,41.20
2018-09-02T10:12:13.699Z,41.20
2018-09-02T10:13:31.269Z,41.10
2018-09-02T10:14:48.287Z,41.20
2018-09-02T10:16:05.723Z,41.30
2018-09-02T10:17:22.382Z,41.30
2018-09-02T10:18:39.289Z,41.20
2018-09-02T10:19:56.138Z,41.40
2018-09-02T10:21:12.993Z,41.50
2018-09-02T10:22:29.726Z,41.20
2018-09-02T10:23:46.585Z,41.30
2018-09-02T10:25:03.396Z,41.30
2018-09-02T10:26:21.107Z,41.30
2018-09-02T10:27:38.101Z,41.40
2018-09-02T10:28:54.935Z,41.30
2018-09-02T10:30:11.672Z,41.30
2018-09-02T10:31:29.259Z,41.40
2018-09-02T10:32:46.940Z,41.40
2018-09-02T10:34:04.483Z,41.40
2018-09-02T10:35:21.471Z,41.40
2018-09-02T10:36:39.093Z,41.40
2018-09-02T10:37:56.632Z,41.40
2018-09-02T10:39:13.775Z,41.40
2018-09-02T10:40:30.296Z,41.40
2018-09-02T10:41:47.108Z,41.40
2018-09-02T10:43:03.820Z,41.50
2018-09-02T10:44:21.006Z,41.50
2018-09-02T10:45:38.493Z,41.50
2018-09-02T10:46:55.553Z,41.50
2018-09-02T10:48:13.018Z,41.50
2018-09-02T10:49:29.989Z,41.50
2018-09-02T10:50:46.982Z,41.50
2018-09-02T10:52:03.820Z,41.60
2018-09-02T10:53:20.410Z,41.60
2018-09-02T10:54:37.064Z,41.70
2018-09-02T10:55:53.864Z,41.70
2018-09-02T10:57:10.609Z,41.60
2018-09-02T10:58:27.254Z,41.70
2018-09-02T10:59:44.036Z,41.70
2018-09-02T11:01:00.637Z,41.60
2018-09-02T11:02:17.296Z,41.70
2018-09-02T11:03:34.739Z,41.70
2018-09-02T11:04:51.908Z,41.70
2018-09-02T11:06:08.501Z,41.70
2018-09-02T11:07:25.048Z,41.80
2018-09-02T11:08:41.837Z,41.80
2018-09-02T11:09:59.359Z,41.70
2018-09-02T11:11:16.338Z,41.80
2018-09-02T11:12:33.070Z,41.70
2018-09-02T11:13:50.036Z,41.80
2018-09-02T11:15:08.770Z,41.80
2018-09-02T11:16:25.849Z,41.80
2018-09-02T11:17:43.070Z,41.80
2018-09-02T11:19:00.446Z,41.90
2018-09-02T11:20:17.558Z,41.90
2018-09-02T11:21:35.243Z,41.90
2018-09-02T11:22:52.902Z,41.90
2018-09-02T11:24:10.841Z,41.90
2018-09-02T11:25:28.405Z,41.90
2018-09-02T11:26:45.601Z,41.40
2018-09-02T11:28:03.415Z,41.90
2018-09-02T11:29:20.783Z,41.90
2018-09-02T11:30:38.461Z,41.90
2018-09-02T11:31:57.440Z,42.00
2018-09-02T11:33:16.400Z,42.00
2018-09-02T11:34:33.920Z,42.00
2018-09-02T11:35:50.422Z,42.00
2018-09-02T11:37:07.083Z,42.00
2018-09-02T11:38:23.743Z,42.00
2018-09-02T11:39:40.504Z,42.00
2018-09-02T11:40:57.257Z,42.00
2018-09-02T11:42:14.232Z,42.00
2018-09-02T11:43:31.109Z,42.10
2018-09-02T11:44:47.977Z,42.00
2018-09-02T11:46:05.168Z,42.10
2018-09-02T11:47:22.597Z,42.10
2018-09-02T11:48:39.214Z,42.10
2018-09-02T11:49:56.066Z,42.10
2018-09-02T11:51:13.020Z,42.20
2018-09-02T11:52:29.792Z,42.20
2018-09-02T11:53:46.599Z,42.20
2018-09-02T11:55:03.482Z,42.20
2018-09-02T11:56:21.073Z,42.20
2018-09-02T11:57:38.048Z,42.30
2018-09-02T11:58:54.977Z,42.20
2018-09-02T12:00:12.314Z,42.30
2018-09-02T12:01:33.175Z,42.30
2018-09-02T12:02:50.212Z,42.20
2018-09-02T12:04:07.357Z,42.30
2018-09-02T12:05:24.710Z,42.30
2018-09-02T12:06:42.500Z,42.40
2018-09-02T12:07:59.602Z,42.40
2018-09-02T12:09:16.412Z,42.30
2018-09-02T12:10:34.007Z,42.40
2018-09-02T12:11:51.192Z,42.40
2018-09-02T12:13:07.699Z,42.50
2018-09-02T12:14:24.633Z,42.40
2018-09-02T12:15:41.200Z,43.30
2018-09-02T12:16:57.847Z,42.50
2018-09-02T12:18:15.519Z,42.50
2018-09-02T12:19:33.020Z,42.50
2018-09-02T12:20:49.878Z,42.50
2018-09-02T12:22:06.723Z,42.50
2018-09-02T12:23:23.539Z,42.60
2018-09-02T12:24:41.792Z,42.50
2018-09-02T12:25:58.925Z,42.60
2018-09-02T12:27:15.851Z,42.60
2018-09-02T12:28:33.410Z,42.60
2018-09-02T12:29:50.233Z,42.40
2018-09-02T12:31:06.917Z,42.60
2018-09-02T12:32:24.778Z,42.60
2018-09-02T12:33:42.257Z,42.60
2018-09-02T12:34:59.395Z,42.60
2018-09-02T12:36:16.736Z,42.70
2018-09-02T12:37:33.878Z,42.70
2018-09-02T12:38:50.923Z,42.60
2018-09-02T12:40:07.650Z,42.60
2018-09-02T12:41:25.254Z,42.70
2018-09-02T12:42:42.061Z,42.70
2018-09-02T12:44:00.241Z,42.70
2018-09-02T12:45:17.493Z,42.70
2018-09-02T12:46:35.299Z,42.80
2018-09-02T12:47:52.877Z,43.00
2018-09-02T12:49:10.360Z,42.80
2018-09-02T12:50:27.192Z,42.70
2018-09-02T12:51:50.129Z,42.80
2018-09-02T12:53:07.805Z,42.70
2018-09-02T12:54:24.336Z,42.80
2018-09-02T12:55:41.085Z,43.50
2018-09-02T12:56:58.227Z,42.80
2018-09-02T12:58:14.773Z,42.90
2018-09-02T12:59:31.790Z,42.80
2018-09-02T13:00:48.513Z,42.80
2018-09-02T13:02:05.559Z,42.90
2018-09-02T13:03:23.263Z,42.80
2018-09-02T13:04:42.053Z,42.90
2018-09-02T13:05:58.922Z,43.00
2018-09-02T13:07:16.483Z,42.50
2018-09-02T13:08:33.330Z,43.00
2018-09-02T13:09:50.325Z,43.00
2018-09-02T13:11:08.398Z,43.00
2018-09-02T13:12:25.679Z,43.00
2018-09-02T13:13:44.146Z,43.00
2018-09-02T13:15:01.267Z,43.70
2018-09-02T13:16:18.721Z,42.90
2018-09-02T13:17:35.846Z,43.10
2018-09-02T13:18:52.408Z,43.00
2018-09-02T13:20:09.216Z,43.10
2018-09-02T13:21:26.806Z,43.00
2018-09-02T13:22:43.746Z,43.00
2018-09-02T13:24:00.662Z,43.00
2018-09-02T13:25:17.985Z,43.10
2018-09-02T13:26:34.961Z,43.00
2018-09-02T13:27:51.683Z,43.00
2018-09-02T13:29:09.434Z,43.00
2018-09-02T13:30:26.259Z,43.10
2018-09-02T13:31:42.997Z,43.10
2018-09-02T13:32:59.869Z,43.10
2018-09-02T13:34:17.353Z,43.10
2018-09-02T13:35:34.238Z,43.70
2018-09-02T13:36:50.900Z,43.10
2018-09-02T13:38:07.655Z,43.10
2018-09-02T13:39:24.512Z,43.10
2018-09-02T13:40:41.396Z,43.10
2018-09-02T13:41:58.830Z,43.10
2018-09-02T13:43:15.777Z,43.10
2018-09-02T13:44:33.318Z,43.10
2018-09-02T13:45:50.757Z,42.60
2018-09-02T13:47:07.682Z,43.30
2018-09-02T13:48:24.308Z,43.10
2018-09-02T13:49:41.110Z,43.10
2018-09-02T13:50:58.184Z,43.20
2018-09-02T13:52:14.910Z,43.20
2018-09-02T13:53:31.658Z,43.10
2018-09-02T13:54:48.614Z,43.30
2018-09-02T13:56:06.292Z,43.30
2018-09-02T13:57:23.987Z,43.30
2018-09-02T13:58:40.871Z,43.20
2018-09-02T13:59:58.240Z,43.30
2018-09-02T14:01:16.185Z,43.20
2018-09-02T14:02:33.624Z,43.30
2018-09-02T14:03:50.426Z,43.30
2018-09-02T14:05:07.593Z,43.30
2018-09-02T14:06:24.805Z,43.40
2018-09-02T14:07:42.526Z,42.90
2018-09-02T14:08:59.869Z,43.30
2018-09-02T14:10:16.587Z,43.30
2018-09-02T14:11:34.178Z,43.20
2018-09-02T14:12:55.539Z,43.40
2018-09-02T14:14:12.605Z,43.30
2018-09-02T14:15:29.968Z,43.30
2018-09-02T14:16:46.831Z,43.30
2018-09-02T14:18:05.024Z,43.50
2018-09-02T14:19:21.809Z,43.30
2018-09-02T14:20:38.615Z,43.30
2018-09-02T14:21:56.031Z,43.30
2018-09-02T14:23:12.606Z,43.40
2018-09-02T14:24:29.333Z,43.30
2018-09-02T14:25:46.014Z,43.40
2018-09-02T14:27:02.649Z,43.40
2018-09-02T14:28:19.454Z,43.40
2018-09-02T14:29:36.053Z,43.30
2018-09-02T14:30:52.925Z,43.40
2018-09-02T14:32:09.795Z,43.30
2018-09-02T14:33:26.454Z,43.40
2018-09-02T14:34:43.270Z,43.30
2018-09-02T14:36:00.778Z,43.40
2018-09-02T14:37:17.569Z,43.40
2018-09-02T14:38:34.461Z,43.50
2018-09-02T14:39:51.212Z,43.40
2018-09-02T14:41:08.038Z,43.40
2018-09-02T14:42:24.559Z,43.40
2018-09-02T14:43:41.745Z,43.40
2018-09-02T14:44:59.112Z,43.50
2018-09-02T14:46:16.138Z,43.50
2018-09-02T14:47:32.878Z,44.10
2018-09-02T14:48:49.666Z,43.40
2018-09-02T14:50:06.503Z,43.50
2018-09-02T14:51:24.192Z,43.60
2018-09-02T14:52:41.063Z,43.40
2018-09-02T14:53:57.877Z,43.40
2018-09-02T14:55:15.589Z,43.40
2018-09-02T14:56:34.189Z,43.60
2018-09-02T14:57:51.683Z,43.50
2018-09-02T14:59:08.634Z,43.50
2018-09-02T15:00:25.415Z,43.50
2018-09-02T15:01:42.238Z,43.50
2018-09-02T15:02:58.822Z,43.50
2018-09-02T15:04:15.616Z,44.10
2018-09-02T15:05:33.456Z,43.90
2018-09-02T15:06:51.251Z,43.60
2018-09-02T15:08:08.767Z,43.60
2018-09-02T15:09:25.618Z,43.70
2018-09-02T15:10:42.669Z,43.70
2018-09-02T15:12:00.265Z,43.60
2018-09-02T15:13:17.996Z,43.70
2018-09-02T15:14:35.596Z,43.80
2018-09-02T15:15:52.177Z,43.90
2018-09-02T15:17:09.162Z,43.90
2018-09-02T15:18:25.801Z,43.70
2018-09-02T15:19:43.264Z,43.80
2018-09-02T15:21:00.012Z,43.80
2018-09-02T15:22:17.927Z,43.90
2018-09-02T15:23:35.628Z,43.80
2018-09-02T15:24:53.763Z,43.80
2018-09-02T15:26:10.972Z,43.80
2018-09-02T15:27:27.793Z,43.80
2018-09-02T15:28:45.236Z,43.90
2018-09-02T15:30:02.030Z,43.90
2018-09-02T15:31:18.895Z,43.90
2018-09-02T15:32:35.875Z,43.90
2018-09-02T15:33:53.384Z,44.00
2018-09-02T15:35:10.244Z,44.00
2018-09-02T15:36:27.056Z,43.90
2018-09-02T15:37:43.796Z,44.00
2018-09-02T15:39:00.725Z,44.00
2018-09-02T15:40:17.517Z,44.00
2018-09-02T15:41:34.233Z,44.00
2018-09-02T15:42:51.040Z,44.00
2018-09-02T15:44:08.314Z,44.10
2018-09-02T15:45:25.237Z,44.10
2018-09-02T15:46:42.113Z,44.10
2018-09-02T15:47:58.922Z,44.10
2018-09-02T15:49:16.430Z,44.10
2018-09-02T15:50:33.418Z,43.60
2018-09-02T15:51:50.189Z,44.10
2018-09-02T15:53:07.125Z,44.10
2018-09-02T15:54:23.782Z,44.10
2018-09-02T15:55:40.728Z,43.70
2018-09-02T15:56:58.412Z,44.20
2018-09-02T15:58:15.168Z,44.20
2018-09-02T15:59:32.969Z,44.20
2018-09-02T16:00:50.249Z,44.30
2018-09-02T16:02:07.145Z,44.30
2018-09-02T16:03:23.732Z,44.30
2018-09-02T16:04:42.016Z,44.30
2018-09-02T16:05:59.447Z,44.30
2018-09-02T16:07:17.090Z,44.40
2018-09-02T16:08:33.776Z,44.40
2018-09-02T16:09:50.448Z,44.40
2018-09-02T16:11:08.029Z,44.40
2018-09-02T16:12:25.620Z,44.40
2018-09-02T16:13:42.521Z,44.40
2018-09-02T16:15:00.132Z,44.40
2018-09-02T16:16:17.385Z,44.40
2018-09-02T16:17:34.937Z,44.50
2018-09-02T16:18:51.559Z,44.50
2018-09-02T16:20:08.201Z,44.40
2018-09-02T16:21:25.076Z,44.50
2018-09-02T16:22:42.205Z,44.50
2018-09-02T16:23:58.807Z,44.50
2018-09-02T16:25:16.519Z,44.60
2018-09-02T16:26:33.593Z,44.50
2018-09-02T16:27:51.165Z,45.00
2018-09-02T16:29:08.202Z,44.70
2018-09-02T16:30:26.065Z,44.60
2018-09-02T16:31:43.789Z,44.70
2018-09-02T16:33:01.485Z,44.60